sensor_id;sensor_type;location;lat;lon;timestamp;temperature;humidity
24011;DHT22;12217;50.792;4.372;2024-02-28T00:01:32;7.90;99.90
24011;DHT22;12217;50.792;4.372;2024-02-28T00:04:01;7.90;99.90
24011;DHT22;12217;50.792;4.372;2024-02-28T00:06:29;8.00;99.90
24011;DHT22;12217;50.792;4.372;2024-02-28T00:08:55;8.00;99.90
24011;DHT22;12217;50.792;4.372;2024-02-28T00:11:23;7.90;99.90
24011;DHT22;12217;50.792;4.372;2024-02-28T00:13:48;7.70;99.90
24011;DHT22;12217;50.792;4.372;2024-02-28T00:16:19;7.60;99.90
24011;DHT22;12217;50.792;4.372;2024-02-28T00:18:53;7.60;99.90
24011;DHT22;12217;50.792;4.372;2024-02-28T00:21:19;7.40;99.90
24011;DHT22;12217;50.792;4.372;2024-02-28T00:23:44;7.50;99.90
24011;DHT22;12217;50.792;4.372;2024-02-28T00:26:11;7.50;99.90
24011;DHT22;12217;50.792;4.372;2024-02-28T00:28:37;7.50;99.90
24011;DHT22;12217;50.792;4.372;2024-02-28T00:31:03;7.60;99.90
24011;DHT22;12217;50.792;4.372;2024-02-28T00:33:28;7.50;99.90
24011;DHT22;12217;50.792;4.372;2024-02-28T00:35:54;7.50;99.90
24011;DHT22;12217;50.792;4.372;2024-02-28T00:38:20;7.60;99.90
24011;DHT22;12217;50.792;4.372;2024-02-28T00:40:45;7.50;99.90
24011;DHT22;12217;50.792;4.372;2024-02-28T00:43:11;7.40;99.90
24011;DHT22;12217;50.792;4.372;2024-02-28T00:45:36;7.40;99.90
24011;DHT22;12217;50.792;4.372;2024-02-28T00:48:02;7.30;99.90
24011;DHT22;12217;50.792;4.372;2024-02-28T00:50:27;7.30;99.90
24011;DHT22;12217;50.792;4.372;2024-02-28T00:52:53;7.50;99.90
24011;DHT22;12217;50.792;4.372;2024-02-28T00:55:19;7.30;99.90
24011;DHT22;12217;50.792;4.372;2024-02-28T00:57:44;7.30;99.90
24011;DHT22;12217;50.792;4.372;2024-02-28T01:00:10;7.40;99.90
24011;DHT22;12217;50.792;4.372;2024-02-28T01:02:36;7.30;99.90
24011;DHT22;12217;50.792;4.372;2024-02-28T01:05:02;7.30;99.90
24011;DHT22;12217;50.792;4.372;2024-02-28T01:07:27;7.30;99.90
24011;DHT22;12217;50.792;4.372;2024-02-28T01:09:53;7.30;99.90
24011;DHT22;12217;50.792;4.372;2024-02-28T01:12:19;7.30;99.90
24011;DHT22;12217;50.792;4.372;2024-02-28T01:14:44;7.40;99.90
24011;DHT22;12217;50.792;4.372;2024-02-28T01:17:10;7.30;99.90
24011;DHT22;12217;50.792;4.372;2024-02-28T01:19:36;7.40;99.90
24011;DHT22;12217;50.792;4.372;2024-02-28T01:22:01;7.30;99.90
24011;DHT22;12217;50.792;4.372;2024-02-28T01:24:27;7.20;99.90
24011;DHT22;12217;50.792;4.372;2024-02-28T01:26:53;7.20;99.90
24011;DHT22;12217;50.792;4.372;2024-02-28T01:29:18;7.20;99.90
24011;DHT22;12217;50.792;4.372;2024-02-28T01:31:44;7.20;99.90
24011;DHT22;12217;50.792;4.372;2024-02-28T01:34:10;7.10;99.90
24011;DHT22;12217;50.792;4.372;2024-02-28T01:36:35;7.10;99.90
24011;DHT22;12217;50.792;4.372;2024-02-28T01:39:01;7.00;99.90
24011;DHT22;12217;50.792;4.372;2024-02-28T01:41:26;7.00;99.90
24011;DHT22;12217;50.792;4.372;2024-02-28T01:43:52;7.10;99.90
24011;DHT22;12217;50.792;4.372;2024-02-28T01:46:25;7.10;99.90
24011;DHT22;12217;50.792;4.372;2024-02-28T01:48:51;7.10;99.90
24011;DHT22;12217;50.792;4.372;2024-02-28T01:51:17;7.10;99.90
24011;DHT22;12217;50.792;4.372;2024-02-28T01:53:44;7.00;99.90
24011;DHT22;12217;50.792;4.372;2024-02-28T01:56:12;7.10;99.90
24011;DHT22;12217;50.792;4.372;2024-02-28T01:58:39;7.00;99.90
24011;DHT22;12217;50.792;4.372;2024-02-28T02:01:05;7.00;99.90
24011;DHT22;12217;50.792;4.372;2024-02-28T02:03:32;7.00;99.90
24011;DHT22;12217;50.792;4.372;2024-02-28T02:06:01;7.00;99.90
24011;DHT22;12217;50.792;4.372;2024-02-28T02:08:27;7.10;99.90
24011;DHT22;12217;50.792;4.372;2024-02-28T02:10:52;7.00;99.90
24011;DHT22;12217;50.792;4.372;2024-02-28T02:13:18;6.90;99.90
24011;DHT22;12217;50.792;4.372;2024-02-28T02:15:44;7.00;99.90
24011;DHT22;12217;50.792;4.372;2024-02-28T02:18:09;7.00;99.90
24011;DHT22;12217;50.792;4.372;2024-02-28T02:20:37;7.10;99.90
24011;DHT22;12217;50.792;4.372;2024-02-28T02:23:04;7.20;99.90
24011;DHT22;12217;50.792;4.372;2024-02-28T02:25:30;7.10;99.90
24011;DHT22;12217;50.792;4.372;2024-02-28T02:27:55;7.10;99.90
24011;DHT22;12217;50.792;4.372;2024-02-28T02:30:21;7.10;99.90
24011;DHT22;12217;50.792;4.372;2024-02-28T02:32:46;6.90;99.90
24011;DHT22;12217;50.792;4.372;2024-02-28T02:35:12;6.80;99.90
24011;DHT22;12217;50.792;4.372;2024-02-28T02:37:37;6.70;99.90
24011;DHT22;12217;50.792;4.372;2024-02-28T02:40:03;6.80;99.90
24011;DHT22;12217;50.792;4.372;2024-02-28T02:42:29;6.70;99.90
24011;DHT22;12217;50.792;4.372;2024-02-28T02:44:54;6.80;99.90
24011;DHT22;12217;50.792;4.372;2024-02-28T02:47:20;6.80;99.90
24011;DHT22;12217;50.792;4.372;2024-02-28T02:49:46;6.80;99.90
24011;DHT22;12217;50.792;4.372;2024-02-28T02:52:11;6.90;99.90
24011;DHT22;12217;50.792;4.372;2024-02-28T02:54:37;6.90;99.90
24011;DHT22;12217;50.792;4.372;2024-02-28T02:57:02;6.90;99.90
24011;DHT22;12217;50.792;4.372;2024-02-28T02:59:28;6.80;99.90
24011;DHT22;12217;50.792;4.372;2024-02-28T03:01:54;6.80;99.90
24011;DHT22;12217;50.792;4.372;2024-02-28T03:04:19;6.70;99.90
24011;DHT22;12217;50.792;4.372;2024-02-28T03:06:45;6.80;99.90
24011;DHT22;12217;50.792;4.372;2024-02-28T03:09:10;6.80;99.90
24011;DHT22;12217;50.792;4.372;2024-02-28T03:11:36;6.70;99.90
24011;DHT22;12217;50.792;4.372;2024-02-28T03:14:01;6.80;99.90
24011;DHT22;12217;50.792;4.372;2024-02-28T03:16:27;6.90;99.90
24011;DHT22;12217;50.792;4.372;2024-02-28T03:18:54;6.80;99.90
24011;DHT22;12217;50.792;4.372;2024-02-28T03:21:20;6.80;99.90
24011;DHT22;12217;50.792;4.372;2024-02-28T03:23:46;6.60;99.90
24011;DHT22;12217;50.792;4.372;2024-02-28T03:26:12;6.50;99.90
24011;DHT22;12217;50.792;4.372;2024-02-28T03:28:37;6.50;99.90
24011;DHT22;12217;50.792;4.372;2024-02-28T03:31:03;6.50;99.90
24011;DHT22;12217;50.792;4.372;2024-02-28T03:33:28;6.50;99.90
24011;DHT22;12217;50.792;4.372;2024-02-28T03:35:56;6.60;99.90
24011;DHT22;12217;50.792;4.372;2024-02-28T03:38:22;6.60;99.90
24011;DHT22;12217;50.792;4.372;2024-02-28T03:40:48;6.60;99.90
24011;DHT22;12217;50.792;4.372;2024-02-28T03:43:13;6.60;99.90
24011;DHT22;12217;50.792;4.372;2024-02-28T03:45:39;6.70;99.90
24011;DHT22;12217;50.792;4.372;2024-02-28T03:48:05;6.70;99.90
24011;DHT22;12217;50.792;4.372;2024-02-28T03:50:30;6.70;99.90
24011;DHT22;12217;50.792;4.372;2024-02-28T03:52:56;6.60;99.90
24011;DHT22;12217;50.792;4.372;2024-02-28T03:55:21;6.50;99.90
24011;DHT22;12217;50.792;4.372;2024-02-28T03:57:48;6.40;99.90
24011;DHT22;12217;50.792;4.372;2024-02-28T04:00:13;6.30;99.90
24011;DHT22;12217;50.792;4.372;2024-02-28T04:02:39;6.20;99.90
24011;DHT22;12217;50.792;4.372;2024-02-28T04:05:05;6.10;99.90
24011;DHT22;12217;50.792;4.372;2024-02-28T04:07:31;6.00;99.90
24011;DHT22;12217;50.792;4.372;2024-02-28T04:09:56;6.10;99.90
24011;DHT22;12217;50.792;4.372;2024-02-28T04:12:22;6.20;99.90
24011;DHT22;12217;50.792;4.372;2024-02-28T04:14:47;6.20;99.90
24011;DHT22;12217;50.792;4.372;2024-02-28T04:17:13;6.20;99.90
24011;DHT22;12217;50.792;4.372;2024-02-28T04:19:38;6.20;99.90
24011;DHT22;12217;50.792;4.372;2024-02-28T04:22:05;6.20;99.90
24011;DHT22;12217;50.792;4.372;2024-02-28T04:24:30;6.30;99.90
24011;DHT22;12217;50.792;4.372;2024-02-28T04:26:57;6.30;99.90
24011;DHT22;12217;50.792;4.372;2024-02-28T04:29:25;6.30;99.90
24011;DHT22;12217;50.792;4.372;2024-02-28T04:31:50;6.20;99.90
24011;DHT22;12217;50.792;4.372;2024-02-28T04:34:16;6.30;99.90
24011;DHT22;12217;50.792;4.372;2024-02-28T04:36:41;6.50;99.90
24011;DHT22;12217;50.792;4.372;2024-02-28T04:39:07;6.40;99.90
24011;DHT22;12217;50.792;4.372;2024-02-28T04:41:33;6.40;99.90
24011;DHT22;12217;50.792;4.372;2024-02-28T04:43:59;6.40;99.90
24011;DHT22;12217;50.792;4.372;2024-02-28T04:46:25;6.30;99.90
24011;DHT22;12217;50.792;4.372;2024-02-28T04:48:50;6.30;99.90
24011;DHT22;12217;50.792;4.372;2024-02-28T04:51:16;6.20;99.90
24011;DHT22;12217;50.792;4.372;2024-02-28T04:53:44;6.20;99.90
24011;DHT22;12217;50.792;4.372;2024-02-28T04:56:10;6.30;99.90
24011;DHT22;12217;50.792;4.372;2024-02-28T04:58:36;6.20;99.90
24011;DHT22;12217;50.792;4.372;2024-02-28T05:01:02;6.20;99.90
24011;DHT22;12217;50.792;4.372;2024-02-28T05:03:28;6.20;99.90
24011;DHT22;12217;50.792;4.372;2024-02-28T05:05:55;6.10;99.90
24011;DHT22;12217;50.792;4.372;2024-02-28T05:08:21;6.20;99.90
24011;DHT22;12217;50.792;4.372;2024-02-28T05:10:46;6.10;99.90
24011;DHT22;12217;50.792;4.372;2024-02-28T05:13:12;6.10;99.90
24011;DHT22;12217;50.792;4.372;2024-02-28T05:15:38;6.10;99.90
24011;DHT22;12217;50.792;4.372;2024-02-28T05:18:04;6.10;99.90
24011;DHT22;12217;50.792;4.372;2024-02-28T05:20:29;6.10;99.90
24011;DHT22;12217;50.792;4.372;2024-02-28T05:22:55;6.20;99.90
24011;DHT22;12217;50.792;4.372;2024-02-28T05:25:21;6.10;99.90
24011;DHT22;12217;50.792;4.372;2024-02-28T05:27:46;6.20;99.90
24011;DHT22;12217;50.792;4.372;2024-02-28T05:30:12;6.20;99.90
24011;DHT22;12217;50.792;4.372;2024-02-28T05:32:37;6.30;99.90
24011;DHT22;12217;50.792;4.372;2024-02-28T05:35:03;6.40;99.90
24011;DHT22;12217;50.792;4.372;2024-02-28T05:37:29;6.40;99.90
24011;DHT22;12217;50.792;4.372;2024-02-28T05:39:55;6.50;99.90
24011;DHT22;12217;50.792;4.372;2024-02-28T05:42:20;6.50;99.90
24011;DHT22;12217;50.792;4.372;2024-02-28T05:44:49;6.70;99.90
24011;DHT22;12217;50.792;4.372;2024-02-28T05:47:15;6.70;99.90
24011;DHT22;12217;50.792;4.372;2024-02-28T05:49:41;6.70;99.90
24011;DHT22;12217;50.792;4.372;2024-02-28T05:52:07;6.90;99.90
24011;DHT22;12217;50.792;4.372;2024-02-28T05:54:33;6.90;99.90
24011;DHT22;12217;50.792;4.372;2024-02-28T05:57:01;6.90;99.90
24011;DHT22;12217;50.792;4.372;2024-02-28T05:59:27;6.80;99.90
24011;DHT22;12217;50.792;4.372;2024-02-28T06:01:52;6.80;99.90
24011;DHT22;12217;50.792;4.372;2024-02-28T06:04:18;6.90;99.90
24011;DHT22;12217;50.792;4.372;2024-02-28T06:06:43;7.00;99.90
24011;DHT22;12217;50.792;4.372;2024-02-28T06:09:09;7.00;99.90
24011;DHT22;12217;50.792;4.372;2024-02-28T06:11:36;7.00;99.90
24011;DHT22;12217;50.792;4.372;2024-02-28T06:14:01;7.10;99.90
24011;DHT22;12217;50.792;4.372;2024-02-28T06:16:29;7.30;99.90
24011;DHT22;12217;50.792;4.372;2024-02-28T06:18:55;7.30;99.90
24011;DHT22;12217;50.792;4.372;2024-02-28T06:21:23;7.20;99.90
24011;DHT22;12217;50.792;4.372;2024-02-28T06:23:49;7.30;99.90
24011;DHT22;12217;50.792;4.372;2024-02-28T06:26:15;7.30;99.90
24011;DHT22;12217;50.792;4.372;2024-02-28T06:28:43;7.20;99.90
24011;DHT22;12217;50.792;4.372;2024-02-28T06:31:17;7.20;99.90
24011;DHT22;12217;50.792;4.372;2024-02-28T06:33:43;7.10;99.90
24011;DHT22;12217;50.792;4.372;2024-02-28T06:36:09;6.90;99.90
24011;DHT22;12217;50.792;4.372;2024-02-28T06:38:35;7.00;99.90
24011;DHT22;12217;50.792;4.372;2024-02-28T06:41:04;7.10;99.90
24011;DHT22;12217;50.792;4.372;2024-02-28T06:43:33;7.10;99.90
24011;DHT22;12217;50.792;4.372;2024-02-28T06:45:58;7.20;99.90
24011;DHT22;12217;50.792;4.372;2024-02-28T06:48:24;7.20;99.90
24011;DHT22;12217;50.792;4.372;2024-02-28T06:50:50;7.10;99.90
24011;DHT22;12217;50.792;4.372;2024-02-28T06:53:15;7.10;99.90
24011;DHT22;12217;50.792;4.372;2024-02-28T06:55:41;7.00;99.90
24011;DHT22;12217;50.792;4.372;2024-02-28T06:58:06;7.00;99.90
24011;DHT22;12217;50.792;4.372;2024-02-28T07:00:32;7.00;99.90
24011;DHT22;12217;50.792;4.372;2024-02-28T07:02:57;7.10;99.90
24011;DHT22;12217;50.792;4.372;2024-02-28T07:05:23;7.20;99.90
24011;DHT22;12217;50.792;4.372;2024-02-28T07:07:49;7.20;99.90
24011;DHT22;12217;50.792;4.372;2024-02-28T07:10:15;7.40;99.90
24011;DHT22;12217;50.792;4.372;2024-02-28T07:12:40;7.50;99.90
24011;DHT22;12217;50.792;4.372;2024-02-28T07:15:06;7.50;99.90
24011;DHT22;12217;50.792;4.372;2024-02-28T07:17:32;7.30;99.90
24011;DHT22;12217;50.792;4.372;2024-02-28T07:19:57;7.10;99.90
24011;DHT22;12217;50.792;4.372;2024-02-28T07:22:23;7.00;99.90
24011;DHT22;12217;50.792;4.372;2024-02-28T07:24:48;7.00;99.90
24011;DHT22;12217;50.792;4.372;2024-02-28T07:27:14;7.10;99.90
24011;DHT22;12217;50.792;4.372;2024-02-28T07:29:41;7.20;99.90
24011;DHT22;12217;50.792;4.372;2024-02-28T07:32:06;7.30;99.90
24011;DHT22;12217;50.792;4.372;2024-02-28T07:34:32;7.20;99.90
24011;DHT22;12217;50.792;4.372;2024-02-28T07:36:59;7.30;99.90
24011;DHT22;12217;50.792;4.372;2024-02-28T07:39:25;7.30;99.90
24011;DHT22;12217;50.792;4.372;2024-02-28T07:41:50;7.30;99.90
24011;DHT22;12217;50.792;4.372;2024-02-28T07:44:16;7.30;99.90
24011;DHT22;12217;50.792;4.372;2024-02-28T07:46:42;7.20;99.90
24011;DHT22;12217;50.792;4.372;2024-02-28T07:49:08;7.20;99.90
24011;DHT22;12217;50.792;4.372;2024-02-28T07:51:33;7.20;99.90
24011;DHT22;12217;50.792;4.372;2024-02-28T07:53:59;7.30;99.90
24011;DHT22;12217;50.792;4.372;2024-02-28T07:56:25;7.30;99.90
24011;DHT22;12217;50.792;4.372;2024-02-28T07:58:50;7.20;99.90
24011;DHT22;12217;50.792;4.372;2024-02-28T08:01:16;7.20;99.90
24011;DHT22;12217;50.792;4.372;2024-02-28T08:03:42;7.20;99.90
24011;DHT22;12217;50.792;4.372;2024-02-28T08:06:08;7.10;99.90
24011;DHT22;12217;50.792;4.372;2024-02-28T08:08:36;7.10;99.90
24011;DHT22;12217;50.792;4.372;2024-02-28T08:11:02;7.30;99.90
24011;DHT22;12217;50.792;4.372;2024-02-28T08:13:28;7.50;99.90
24011;DHT22;12217;50.792;4.372;2024-02-28T08:15:54;7.60;99.90
24011;DHT22;12217;50.792;4.372;2024-02-28T08:18:20;7.70;99.90
24011;DHT22;12217;50.792;4.372;2024-02-28T08:20:46;7.70;99.90
24011;DHT22;12217;50.792;4.372;2024-02-28T08:23:11;7.60;99.90
24011;DHT22;12217;50.792;4.372;2024-02-28T08:25:37;7.50;99.90
24011;DHT22;12217;50.792;4.372;2024-02-28T08:28:04;7.40;99.90
24011;DHT22;12217;50.792;4.372;2024-02-28T08:30:30;7.30;99.90
24011;DHT22;12217;50.792;4.372;2024-02-28T08:32:56;7.40;99.90
24011;DHT22;12217;50.792;4.372;2024-02-28T08:35:23;7.40;99.90
24011;DHT22;12217;50.792;4.372;2024-02-28T08:37:49;7.40;99.90
24011;DHT22;12217;50.792;4.372;2024-02-28T08:40:15;7.40;99.90
24011;DHT22;12217;50.792;4.372;2024-02-28T08:42:40;7.50;99.90
24011;DHT22;12217;50.792;4.372;2024-02-28T08:45:07;7.60;99.90
24011;DHT22;12217;50.792;4.372;2024-02-28T08:47:33;7.60;99.90
24011;DHT22;12217;50.792;4.372;2024-02-28T08:49:59;7.30;99.90
24011;DHT22;12217;50.792;4.372;2024-02-28T08:52:25;7.30;99.90
24011;DHT22;12217;50.792;4.372;2024-02-28T08:54:50;7.50;99.90
24011;DHT22;12217;50.792;4.372;2024-02-28T08:57:16;7.90;99.90
24011;DHT22;12217;50.792;4.372;2024-02-28T08:59:42;8.10;99.90
24011;DHT22;12217;50.792;4.372;2024-02-28T09:02:08;8.20;99.90
24011;DHT22;12217;50.792;4.372;2024-02-28T09:04:34;8.10;99.90
24011;DHT22;12217;50.792;4.372;2024-02-28T09:07:00;8.20;99.90
24011;DHT22;12217;50.792;4.372;2024-02-28T09:09:26;8.30;99.90
24011;DHT22;12217;50.792;4.372;2024-02-28T09:11:51;8.40;99.90
24011;DHT22;12217;50.792;4.372;2024-02-28T09:14:17;8.40;99.90
24011;DHT22;12217;50.792;4.372;2024-02-28T09:16:43;8.20;99.90
24011;DHT22;12217;50.792;4.372;2024-02-28T09:19:08;8.30;99.90
24011;DHT22;12217;50.792;4.372;2024-02-28T09:21:34;8.20;99.90
24011;DHT22;12217;50.792;4.372;2024-02-28T09:24:00;8.10;99.90
24011;DHT22;12217;50.792;4.372;2024-02-28T09:26:26;7.80;99.90
24011;DHT22;12217;50.792;4.372;2024-02-28T09:28:52;7.70;99.90
24011;DHT22;12217;50.792;4.372;2024-02-28T09:31:18;7.80;99.90
24011;DHT22;12217;50.792;4.372;2024-02-28T09:33:44;7.90;99.90
24011;DHT22;12217;50.792;4.372;2024-02-28T09:36:10;7.80;99.90
24011;DHT22;12217;50.792;4.372;2024-02-28T09:38:37;7.90;99.90
24011;DHT22;12217;50.792;4.372;2024-02-28T09:41:02;7.90;99.90
24011;DHT22;12217;50.792;4.372;2024-02-28T09:43:29;8.00;99.90
24011;DHT22;12217;50.792;4.372;2024-02-28T09:46:14;8.30;99.90
24011;DHT22;12217;50.792;4.372;2024-02-28T09:48:40;8.40;99.90
24011;DHT22;12217;50.792;4.372;2024-02-28T09:51:06;8.70;99.90
24011;DHT22;12217;50.792;4.372;2024-02-28T09:53:33;8.60;99.90
24011;DHT22;12217;50.792;4.372;2024-02-28T09:55:59;8.60;99.90
24011;DHT22;12217;50.792;4.372;2024-02-28T09:58:25;8.40;99.90
24011;DHT22;12217;50.792;4.372;2024-02-28T10:00:52;8.50;99.90
24011;DHT22;12217;50.792;4.372;2024-02-28T10:03:21;8.60;99.90
24011;DHT22;12217;50.792;4.372;2024-02-28T10:05:49;8.70;99.90
24011;DHT22;12217;50.792;4.372;2024-02-28T10:08:15;8.80;99.90
24011;DHT22;12217;50.792;4.372;2024-02-28T10:10:47;8.80;99.90
24011;DHT22;12217;50.792;4.372;2024-02-28T10:13:15;8.60;99.90
24011;DHT22;12217;50.792;4.372;2024-02-28T10:15:40;8.60;99.90
24011;DHT22;12217;50.792;4.372;2024-02-28T10:18:06;8.60;99.90
24011;DHT22;12217;50.792;4.372;2024-02-28T10:20:32;8.40;99.90
24011;DHT22;12217;50.792;4.372;2024-02-28T10:23:00;8.50;99.90
24011;DHT22;12217;50.792;4.372;2024-02-28T10:25:28;8.60;99.90
24011;DHT22;12217;50.792;4.372;2024-02-28T10:27:59;8.80;99.90
24011;DHT22;12217;50.792;4.372;2024-02-28T10:30:25;8.90;99.90
24011;DHT22;12217;50.792;4.372;2024-02-28T10:32:51;9.00;99.90
24011;DHT22;12217;50.792;4.372;2024-02-28T10:35:17;9.20;99.90
24011;DHT22;12217;50.792;4.372;2024-02-28T10:37:53;9.40;99.90
24011;DHT22;12217;50.792;4.372;2024-02-28T10:40:20;9.10;99.90
24011;DHT22;12217;50.792;4.372;2024-02-28T10:42:48;9.10;99.90
24011;DHT22;12217;50.792;4.372;2024-02-28T10:45:14;9.20;99.90
24011;DHT22;12217;50.792;4.372;2024-02-28T10:47:42;9.40;99.90
24011;DHT22;12217;50.792;4.372;2024-02-28T10:50:08;9.30;99.90
24011;DHT22;12217;50.792;4.372;2024-02-28T10:52:34;9.30;99.90
24011;DHT22;12217;50.792;4.372;2024-02-28T10:55:07;9.40;99.90
24011;DHT22;12217;50.792;4.372;2024-02-28T10:57:36;9.30;99.90
24011;DHT22;12217;50.792;4.372;2024-02-28T11:00:02;9.40;99.90
24011;DHT22;12217;50.792;4.372;2024-02-28T11:02:31;9.20;99.90
24011;DHT22;12217;50.792;4.372;2024-02-28T11:04:57;9.10;99.90
24011;DHT22;12217;50.792;4.372;2024-02-28T11:07:24;9.30;99.90
24011;DHT22;12217;50.792;4.372;2024-02-28T11:09:56;9.50;99.90
24011;DHT22;12217;50.792;4.372;2024-02-28T11:12:26;9.60;99.90
24011;DHT22;12217;50.792;4.372;2024-02-28T11:15:01;9.30;99.90
24011;DHT22;12217;50.792;4.372;2024-02-28T11:17:31;9.40;99.90
24011;DHT22;12217;50.792;4.372;2024-02-28T11:19:57;9.50;99.90
24011;DHT22;12217;50.792;4.372;2024-02-28T11:22:32;9.40;99.90
24011;DHT22;12217;50.792;4.372;2024-02-28T11:25:09;9.60;99.90
24011;DHT22;12217;50.792;4.372;2024-02-28T11:27:48;9.70;99.90
24011;DHT22;12217;50.792;4.372;2024-02-28T11:30:29;9.90;99.90
24011;DHT22;12217;50.792;4.372;2024-02-28T11:33:03;10.00;99.90
24011;DHT22;12217;50.792;4.372;2024-02-28T11:35:34;10.00;99.90
24011;DHT22;12217;50.792;4.372;2024-02-28T11:37:59;10.10;99.90
24011;DHT22;12217;50.792;4.372;2024-02-28T11:40:39;10.40;99.90
24011;DHT22;12217;50.792;4.372;2024-02-28T11:43:13;10.60;99.90
24011;DHT22;12217;50.792;4.372;2024-02-28T11:45:41;10.60;99.90
24011;DHT22;12217;50.792;4.372;2024-02-28T11:48:08;10.50;99.90
24011;DHT22;12217;50.792;4.372;2024-02-28T11:50:34;10.30;99.90
24011;DHT22;12217;50.792;4.372;2024-02-28T11:53:02;10.20;99.90
24011;DHT22;12217;50.792;4.372;2024-02-28T11:55:30;10.10;99.90
24011;DHT22;12217;50.792;4.372;2024-02-28T11:57:55;10.20;99.90
24011;DHT22;12217;50.792;4.372;2024-02-28T12:00:24;10.40;99.90
24011;DHT22;12217;50.792;4.372;2024-02-28T12:03:05;10.60;99.90
24011;DHT22;12217;50.792;4.372;2024-02-28T12:05:31;10.70;99.90
24011;DHT22;12217;50.792;4.372;2024-02-28T12:07:57;10.70;99.90
24011;DHT22;12217;50.792;4.372;2024-02-28T12:10:24;10.80;99.90
24011;DHT22;12217;50.792;4.372;2024-02-28T12:12:50;11.10;99.90
24011;DHT22;12217;50.792;4.372;2024-02-28T12:15:16;11.40;99.90
24011;DHT22;12217;50.792;4.372;2024-02-28T12:17:42;11.40;99.90
24011;DHT22;12217;50.792;4.372;2024-02-28T12:20:08;11.50;99.90
24011;DHT22;12217;50.792;4.372;2024-02-28T12:22:34;11.70;99.90
24011;DHT22;12217;50.792;4.372;2024-02-28T12:25:00;11.80;99.90
24011;DHT22;12217;50.792;4.372;2024-02-28T12:27:30;11.90;99.90
24011;DHT22;12217;50.792;4.372;2024-02-28T12:29:56;11.50;99.90
24011;DHT22;12217;50.792;4.372;2024-02-28T12:32:22;11.30;99.90
24011;DHT22;12217;50.792;4.372;2024-02-28T12:34:47;11.10;99.90
24011;DHT22;12217;50.792;4.372;2024-02-28T12:37:13;11.20;99.90
24011;DHT22;12217;50.792;4.372;2024-02-28T12:39:38;11.30;99.90
24011;DHT22;12217;50.792;4.372;2024-02-28T12:42:04;11.30;99.90
24011;DHT22;12217;50.792;4.372;2024-02-28T12:44:32;11.20;99.90
24011;DHT22;12217;50.792;4.372;2024-02-28T12:46:57;10.90;99.90
24011;DHT22;12217;50.792;4.372;2024-02-28T12:49:23;10.70;99.90
24011;DHT22;12217;50.792;4.372;2024-02-28T12:51:48;10.50;99.90
24011;DHT22;12217;50.792;4.372;2024-02-28T12:54:15;10.40;99.90
24011;DHT22;12217;50.792;4.372;2024-02-28T12:56:41;10.50;99.90
24011;DHT22;12217;50.792;4.372;2024-02-28T12:59:10;10.50;99.90
24011;DHT22;12217;50.792;4.372;2024-02-28T13:01:36;10.50;99.90
24011;DHT22;12217;50.792;4.372;2024-02-28T13:04:02;10.60;99.90
24011;DHT22;12217;50.792;4.372;2024-02-28T13:06:28;10.60;99.90
24011;DHT22;12217;50.792;4.372;2024-02-28T13:08:53;10.60;99.90
24011;DHT22;12217;50.792;4.372;2024-02-28T13:11:20;10.60;99.90
24011;DHT22;12217;50.792;4.372;2024-02-28T13:13:47;10.50;99.90
24011;DHT22;12217;50.792;4.372;2024-02-28T13:16:13;10.50;99.90
24011;DHT22;12217;50.792;4.372;2024-02-28T13:18:39;10.50;99.90
24011;DHT22;12217;50.792;4.372;2024-02-28T13:21:04;10.40;99.90
24011;DHT22;12217;50.792;4.372;2024-02-28T13:23:30;10.30;99.90
24011;DHT22;12217;50.792;4.372;2024-02-28T13:25:59;10.20;99.90
24011;DHT22;12217;50.792;4.372;2024-02-28T13:28:26;10.10;99.90
24011;DHT22;12217;50.792;4.372;2024-02-28T13:31:04;10.20;99.90
24011;DHT22;12217;50.792;4.372;2024-02-28T13:33:29;10.10;99.90
24011;DHT22;12217;50.792;4.372;2024-02-28T13:35:55;10.00;99.90
24011;DHT22;12217;50.792;4.372;2024-02-28T13:38:21;10.00;99.90
24011;DHT22;12217;50.792;4.372;2024-02-28T13:40:47;9.90;99.90
24011;DHT22;12217;50.792;4.372;2024-02-28T13:43:13;9.90;99.90
24011;DHT22;12217;50.792;4.372;2024-02-28T13:45:39;10.20;99.90
24011;DHT22;12217;50.792;4.372;2024-02-28T13:48:21;10.30;99.90
24011;DHT22;12217;50.792;4.372;2024-02-28T13:50:47;10.50;99.90
24011;DHT22;12217;50.792;4.372;2024-02-28T13:53:14;10.50;99.90
24011;DHT22;12217;50.792;4.372;2024-02-28T13:55:41;10.60;99.90
24011;DHT22;12217;50.792;4.372;2024-02-28T13:58:08;10.50;99.90
24011;DHT22;12217;50.792;4.372;2024-02-28T14:00:35;10.60;99.90
24011;DHT22;12217;50.792;4.372;2024-02-28T14:03:01;10.50;99.90
24011;DHT22;12217;50.792;4.372;2024-02-28T14:05:28;10.50;99.90
24011;DHT22;12217;50.792;4.372;2024-02-28T14:07:53;10.50;99.90
24011;DHT22;12217;50.792;4.372;2024-02-28T14:10:19;10.60;99.90
24011;DHT22;12217;50.792;4.372;2024-02-28T14:12:45;10.60;99.90
24011;DHT22;12217;50.792;4.372;2024-02-28T14:15:10;10.70;99.90
24011;DHT22;12217;50.792;4.372;2024-02-28T14:17:37;10.50;99.90
24011;DHT22;12217;50.792;4.372;2024-02-28T14:20:04;10.30;99.90
24011;DHT22;12217;50.792;4.372;2024-02-28T14:22:29;10.40;99.90
24011;DHT22;12217;50.792;4.372;2024-02-28T14:24:55;10.60;99.90
24011;DHT22;12217;50.792;4.372;2024-02-28T14:27:21;10.70;99.90
24011;DHT22;12217;50.792;4.372;2024-02-28T14:29:47;10.50;99.90
24011;DHT22;12217;50.792;4.372;2024-02-28T14:32:15;10.50;99.90
24011;DHT22;12217;50.792;4.372;2024-02-28T14:34:40;10.60;99.90
24011;DHT22;12217;50.792;4.372;2024-02-28T14:37:06;10.60;99.90
24011;DHT22;12217;50.792;4.372;2024-02-28T14:39:33;10.70;99.90
24011;DHT22;12217;50.792;4.372;2024-02-28T14:41:59;10.70;99.90
24011;DHT22;12217;50.792;4.372;2024-02-28T14:44:25;10.80;99.90
24011;DHT22;12217;50.792;4.372;2024-02-28T14:46:50;10.80;99.90
24011;DHT22;12217;50.792;4.372;2024-02-28T14:49:17;10.80;99.90
24011;DHT22;12217;50.792;4.372;2024-02-28T14:51:43;10.70;99.90
24011;DHT22;12217;50.792;4.372;2024-02-28T14:54:14;10.90;99.90
24011;DHT22;12217;50.792;4.372;2024-02-28T14:56:40;11.00;99.90
24011;DHT22;12217;50.792;4.372;2024-02-28T14:59:06;11.10;99.90
24011;DHT22;12217;50.792;4.372;2024-02-28T15:01:32;11.30;99.90
24011;DHT22;12217;50.792;4.372;2024-02-28T15:03:57;11.30;99.90
24011;DHT22;12217;50.792;4.372;2024-02-28T15:06:23;11.10;99.90
24011;DHT22;12217;50.792;4.372;2024-02-28T15:08:48;10.80;99.90
24011;DHT22;12217;50.792;4.372;2024-02-28T15:11:15;10.70;99.90
24011;DHT22;12217;50.792;4.372;2024-02-28T15:13:40;10.80;99.90
24011;DHT22;12217;50.792;4.372;2024-02-28T15:16:06;10.90;99.90
24011;DHT22;12217;50.792;4.372;2024-02-28T15:18:32;11.00;99.90
24011;DHT22;12217;50.792;4.372;2024-02-28T15:20:58;11.10;99.90
24011;DHT22;12217;50.792;4.372;2024-02-28T15:23:23;11.20;99.90
24011;DHT22;12217;50.792;4.372;2024-02-28T15:25:49;11.50;99.90
24011;DHT22;12217;50.792;4.372;2024-02-28T15:28:20;11.80;99.90
24011;DHT22;12217;50.792;4.372;2024-02-28T15:30:46;12.10;99.90
24011;DHT22;12217;50.792;4.372;2024-02-28T15:33:13;12.50;99.90
24011;DHT22;12217;50.792;4.372;2024-02-28T15:35:39;12.70;99.90
24011;DHT22;12217;50.792;4.372;2024-02-28T15:38:05;12.50;99.90